createdAt,value
2016-08-19T00:00:17.652Z,61.55
2016-08-19T00:01:16.966Z,61.25
2016-08-19T00:02:16.995Z,61.25
2016-08-19T00:03:17.735Z,60.77
2016-08-19T00:04:17.757Z,61.07
2016-08-19T00:05:17.083Z,61.16
2016-08-19T00:06:17.808Z,61.25
2016-08-19T00:07:17.126Z,60.97
2016-08-19T00:08:17.864Z,61.25
2016-08-19T00:09:17.178Z,61.25
2016-08-19T00:10:17.207Z,61.16
2016-08-19T00:11:17.231Z,61.45
2016-08-19T00:12:17.971Z,61.74
2016-08-19T00:13:18.004Z,62.22
2016-08-19T00:14:18.025Z,61.93
2016-08-19T00:15:17.629Z,62.03
2016-08-19T00:16:18.464Z,62.51
2016-08-19T00:17:17.462Z,62.32
2016-08-19T00:18:17.421Z,62.22
2016-08-19T00:19:18.163Z,62.41
2016-08-19T00:20:17.507Z,62.7
2016-08-19T00:21:17.568Z,62.41
2016-08-19T00:22:18.306Z,62.29
2016-08-19T00:23:18.324Z,62.29
2016-08-19T00:24:18.351Z,62.03
2016-08-19T00:25:18.327Z,62.19
2016-08-19T00:26:18.336Z,62
2016-08-19T00:27:17.710Z,62.12
2016-08-19T00:28:17.753Z,62.29
2016-08-19T00:29:18.504Z,62.38
2016-08-19T00:30:17.771Z,62.19
2016-08-19T00:31:18.529Z,62.19
2016-08-19T00:32:18.556Z,62.29
2016-08-19T00:33:17.813Z,62.7
2016-08-19T00:34:17.916Z,62.48
2016-08-19T00:35:18.608Z,62.48
2016-08-19T00:36:17.923Z,62.67
2016-08-19T00:37:18.637Z,62.67
2016-08-19T00:38:18.727Z,62.19
2016-08-19T00:39:18.733Z,62.19
2016-08-19T00:40:18.778Z,62.48
2016-08-19T00:41:18.768Z,62.57
2016-08-19T00:42:18.765Z,62.87
2016-08-19T00:43:18.790Z,62.96
2016-08-19T00:44:18.114Z,62.77
2016-08-19T00:45:18.154Z,62.38
2016-08-19T00:46:18.874Z,61.61
2016-08-19T00:47:18.937Z,62.38
2016-08-19T00:48:18.203Z,62.19
2016-08-19T00:49:18.227Z,62.77
2016-08-19T00:50:18.402Z,62.77
2016-08-19T00:51:19.077Z,62.38
2016-08-19T00:52:18.309Z,62.77
2016-08-19T00:53:18.337Z,62.38
2016-08-19T00:54:18.369Z,62
2016-08-19T00:55:18.386Z,62
2016-08-19T00:56:19.206Z,62.38
2016-08-19T00:57:19.199Z,62.19
2016-08-19T00:58:19.174Z,62.19
2016-08-19T00:59:18.497Z,62.19
2016-08-19T01:00:19.229Z,61.8
2016-08-19T01:01:19.254Z,61.61
2016-08-19T01:02:18.602Z,62.09
2016-08-19T01:03:18.599Z,61.9
2016-08-19T01:04:18.619Z,62.19
2016-08-19T01:05:18.647Z,61.71
2016-08-19T01:06:19.383Z,62.19
2016-08-19T01:07:19.425Z,61.71
2016-08-19T01:08:18.725Z,61.9
2016-08-19T01:09:18.750Z,62.38
2016-08-19T01:10:18.779Z,62.19
2016-08-19T01:11:19.515Z,61.71
2016-08-19T01:12:19.544Z,62.09
2016-08-19T01:13:18.856Z,61.61
2016-08-19T01:14:19.592Z,62.38
2016-08-19T01:15:19.616Z,61.52
2016-08-19T01:16:19.642Z,62
2016-08-19T01:17:18.959Z,61.71
2016-08-19T01:18:19.695Z,62.09
2016-08-19T01:19:19.011Z,62.29
2016-08-19T01:20:19.037Z,62
2016-08-19T01:21:19.774Z,62.38
2016-08-19T01:22:19.090Z,62.29
2016-08-19T01:23:19.826Z,62.19
2016-08-19T01:24:19.858Z,62.09
2016-08-19T01:25:19.878Z,62.29
2016-08-19T01:26:19.195Z,62.77
2016-08-19T01:27:19.219Z,63.15
2016-08-19T01:28:19.245Z,62.96
2016-08-19T01:29:19.269Z,62.67
2016-08-19T01:30:19.300Z,62.67
2016-08-19T01:31:19.325Z,63.12
2016-08-19T01:32:19.368Z,62.87
2016-08-19T01:33:19.376Z,62.87
2016-08-19T01:34:19.402Z,62.77
2016-08-19T01:35:19.427Z,62.77
2016-08-19T01:36:19.456Z,62.64
2016-08-19T01:37:19.481Z,62.57
2016-08-19T01:38:19.511Z,62.77
2016-08-19T01:39:20.246Z,62.77
2016-08-19T01:40:20.269Z,62.54
2016-08-19T01:41:19.593Z,63.02
2016-08-19T01:42:20.320Z,63.6
2016-08-19T01:43:19.637Z,63.51
2016-08-19T01:44:19.663Z,62.83
2016-08-19T01:45:19.688Z,63.31
2016-08-19T01:46:19.711Z,63.22
2016-08-19T01:47:20.464Z,62.83
2016-08-19T01:48:19.765Z,62.54
2016-08-19T01:49:19.810Z,62.74
2016-08-19T01:50:20.536Z,62.26
2016-08-19T01:51:19.842Z,62.54
2016-08-19T01:52:19.870Z,62.64
2016-08-19T01:53:19.895Z,63.31
2016-08-19T01:54:20.636Z,63.02
2016-08-19T01:55:19.946Z,63.51
2016-08-19T01:56:19.975Z,62.93
2016-08-19T01:57:20.000Z,63.31
2016-08-19T01:58:20.025Z,62.93
2016-08-19T01:59:20.762Z,63.79
2016-08-19T02:00:20.075Z,63.12
2016-08-19T02:01:20.103Z,63.02
2016-08-19T02:02:20.129Z,63.79
2016-08-19T02:03:20.888Z,63.12
2016-08-19T02:04:20.891Z,63.7
2016-08-19T02:05:20.914Z,63.6
2016-08-19T02:06:20.948Z,63.7
2016-08-19T02:07:20.257Z,63.7
2016-08-19T02:08:20.996Z,63.79
2016-08-19T02:09:20.313Z,63.7
2016-08-19T02:10:21.048Z,63.79
2016-08-19T02:11:20.362Z,63.79
2016-08-19T02:12:20.398Z,63.89
2016-08-19T02:13:20.414Z,63.99
2016-08-19T02:14:21.148Z,63.89
2016-08-19T02:15:20.464Z,64.08
2016-08-19T02:16:21.203Z,64.08
2016-08-19T02:17:21.225Z,63.99
2016-08-19T02:18:20.543Z,63.99
2016-08-19T02:19:20.570Z,64.28
2016-08-19T02:20:20.608Z,64.47
2016-08-19T02:21:20.620Z,64.28
2016-08-19T02:22:20.650Z,65.05
2016-08-19T02:23:21.382Z,64.18
2016-08-19T02:24:20.698Z,65.24
2016-08-19T02:25:21.435Z,64.28
2016-08-19T02:26:21.463Z,64.47
2016-08-19T02:27:21.488Z,65.14
2016-08-19T02:28:21.511Z,64.95
2016-08-19T02:29:20.834Z,65.05
2016-08-19T02:30:20.852Z,65.53
2016-08-19T02:31:21.586Z,65.14
2016-08-19T02:32:20.902Z,64.95
2016-08-19T02:33:21.640Z,64.37
2016-08-19T02:34:20.954Z,64.37
2016-08-19T02:35:20.984Z,65.14
2016-08-19T02:36:21.007Z,64.47
2016-08-19T02:37:21.049Z,64.5
2016-08-19T02:38:21.059Z,64.89
2016-08-19T02:39:21.084Z,65.27
2016-08-19T02:40:21.112Z,64.89
2016-08-19T02:41:21.845Z,64.79
2016-08-19T02:42:21.164Z,64.59
2016-08-19T02:43:21.189Z,64.59
2016-08-19T02:44:21.215Z,64.59
2016-08-19T02:45:21.951Z,64.69
2016-08-19T02:46:21.974Z,64.5
2016-08-19T02:47:22.003Z,64.59
2016-08-19T02:48:21.319Z,64.31
2016-08-19T02:49:21.345Z,64.79
2016-08-19T02:50:22.097Z,64.69
2016-08-19T02:51:22.105Z,64.59
2016-08-19T02:52:21.421Z,64.5
2016-08-19T02:53:22.167Z,64.5
2016-08-19T02:54:22.185Z,64.21
2016-08-19T02:55:22.212Z,64.79
2016-08-19T02:56:21.527Z,64.12
2016-08-19T02:57:21.563Z,63.92
2016-08-19T02:58:22.304Z,64.21
2016-08-19T02:59:21.604Z,64.5
2016-08-19T03:00:22.342Z,64.59
2016-08-19T03:01:21.663Z,64.5
2016-08-19T03:02:21.682Z,64.21
2016-08-19T03:03:21.707Z,64.31
2016-08-19T03:04:22.444Z,64.69
2016-08-19T03:05:21.773Z,64.21
2016-08-19T03:06:21.784Z,64.5
2016-08-19T03:07:21.815Z,64.98
2016-08-19T03:08:21.839Z,64.89
2016-08-19T03:09:22.574Z,65.08
2016-08-19T03:10:22.608Z,65.46
2016-08-19T03:11:22.624Z,65.27
2016-08-19T03:12:22.651Z,64.31
2016-08-19T03:13:21.968Z,64.31
2016-08-19T03:14:22.702Z,64.31
2016-08-19T03:15:22.034Z,64.31
2016-08-19T03:16:22.756Z,64.69
2016-08-19T03:17:22.074Z,64.59
2016-08-19T03:18:22.813Z,64.4
2016-08-19T03:19:22.834Z,64.4
2016-08-19T03:20:22.156Z,64.59
2016-08-19T03:21:22.888Z,64.5
2016-08-19T03:22:22.912Z,64.59
2016-08-19T03:23:22.958Z,64.5
2016-08-19T03:24:22.963Z,64.4
2016-08-19T03:25:22.282Z,64.31
2016-08-19T03:26:22.305Z,64.59
2016-08-19T03:27:22.333Z,63.92
2016-08-19T03:28:22.359Z,64.31
2016-08-19T03:29:22.386Z,64.31
2016-08-19T03:30:22.412Z,64.79
2016-08-19T03:31:23.145Z,63.64
2016-08-19T03:32:23.170Z,63.64
2016-08-19T03:33:22.488Z,64.12
2016-08-19T03:34:23.223Z,63.64
2016-08-19T03:35:23.251Z,63.92
2016-08-19T03:36:23.278Z,63.73
2016-08-19T03:37:23.304Z,63.82
2016-08-19T03:38:23.343Z,63.54
2016-08-19T03:39:22.643Z,63.25
2016-08-19T03:40:23.381Z,63.64
2016-08-19T03:41:22.697Z,63.73
2016-08-19T03:42:23.434Z,63.82
2016-08-19T03:43:23.470Z,63.82
2016-08-19T03:44:22.776Z,63.64
2016-08-19T03:45:22.798Z,63.92
2016-08-19T03:46:23.545Z,64.12
2016-08-19T03:47:23.563Z,64.02
2016-08-19T03:48:22.879Z,63.73
2016-08-19T03:49:23.613Z,63.92
2016-08-19T03:50:22.929Z,64.02
2016-08-19T03:51:23.669Z,64.12
2016-08-19T03:52:22.983Z,64.02
2016-08-19T03:53:23.005Z,63.73
2016-08-19T03:54:23.034Z,63.54
2016-08-19T03:55:23.784Z,63.64
2016-08-19T03:56:23.085Z,63.54
2016-08-19T03:57:23.111Z,63.73
2016-08-19T03:58:23.852Z,63.64
2016-08-19T03:59:23.874Z,63.82
2016-08-19T04:00:23.189Z,63.64
2016-08-19T04:01:23.925Z,63.06
2016-08-19T04:02:23.240Z,63.34
2016-08-19T04:03:23.986Z,63.25
2016-08-19T04:04:24.005Z,63.44
2016-08-19T04:05:23.323Z,63.54
2016-08-19T04:06:23.347Z,62.96
2016-08-19T04:07:23.370Z,63.82
2016-08-19T04:08:23.396Z,62.51
2016-08-19T04:09:23.424Z,63.44
2016-08-19T04:10:23.448Z,62.38
2016-08-19T04:11:24.199Z,63.06
2016-08-19T04:12:24.217Z,62.48
2016-08-19T04:13:24.243Z,62.96
2016-08-19T04:14:23.551Z,63.06
2016-08-19T04:15:23.578Z,63.06
2016-08-19T04:16:23.607Z,62.99
2016-08-19T04:17:24.343Z,63.15
2016-08-19T04:18:23.658Z,63.82
2016-08-19T04:19:23.710Z,63.64
2016-08-19T04:20:23.715Z,63.38
2016-08-19T04:21:23.734Z,63.06
2016-08-19T04:22:23.762Z,63.82
2016-08-19T04:23:23.789Z,63.18
2016-08-19T04:24:24.523Z,63.34
2016-08-19T04:25:23.846Z,63.15
2016-08-19T04:26:24.589Z,63.15
2016-08-19T04:27:24.602Z,62.57
2016-08-19T04:28:23.932Z,63.28
2016-08-19T04:29:24.655Z,63.18
2016-08-19T04:30:24.681Z,63.38
2016-08-19T04:31:24.011Z,63.09
2016-08-19T04:32:24.021Z,64.05
2016-08-19T04:33:24.760Z,63.92
2016-08-19T04:34:24.076Z,64.21
2016-08-19T04:35:24.100Z,64.89
2016-08-19T04:36:24.836Z,64.89
2016-08-19T04:37:24.151Z,66.24
2016-08-19T04:38:24.179Z,65.56
2016-08-19T04:39:24.205Z,66.24
2016-08-19T04:40:24.228Z,66.42
2016-08-19T04:41:24.970Z,66.52
2016-08-19T04:42:24.282Z,67.29
2016-08-19T04:43:25.018Z,68.13
2016-08-19T04:44:24.349Z,68.41
2016-08-19T04:45:24.361Z,68.51
2016-08-19T04:46:24.387Z,68.6
2016-08-19T04:47:25.120Z,69.09
2016-08-19T04:48:24.437Z,68.9
2016-08-19T04:49:24.464Z,68.8
2016-08-19T04:50:24.494Z,69.18
2016-08-19T04:51:24.520Z,69.67
2016-08-19T04:52:25.253Z,69.09
2016-08-19T04:53:24.568Z,70.05
2016-08-19T04:54:25.305Z,70.24
2016-08-19T04:55:25.330Z,71.01
2016-08-19T04:56:25.359Z,71.49
2016-08-19T04:57:25.405Z,71.69
2016-08-19T04:58:24.699Z,71.88
2016-08-19T04:59:25.434Z,71.78
2016-08-19T05:00:24.750Z,72.36
2016-08-19T05:01:24.774Z,72.94
2016-08-19T05:02:25.512Z,72.26
2016-08-19T05:03:25.538Z,72.36
2016-08-19T05:04:24.860Z,72.71
2016-08-19T05:05:25.590Z,72.74
2016-08-19T05:06:24.913Z,73
2016-08-19T05:07:25.641Z,73.38
2016-08-19T05:08:25.669Z,73.19
2016-08-19T05:09:25.696Z,73.28
2016-08-19T05:10:25.719Z,73.57
2016-08-19T05:11:25.745Z,73.57
2016-08-19T05:12:25.061Z,73.38
2016-08-19T05:13:25.091Z,73
2016-08-19T05:14:25.128Z,73.28
2016-08-19T05:15:25.143Z,73.47
2016-08-19T05:16:25.158Z,73.86
2016-08-19T05:17:25.185Z,73.38
2016-08-19T05:18:25.213Z,73.77
2016-08-19T05:19:25.236Z,73.57
2016-08-19T05:20:25.265Z,73.38
2016-08-19T05:21:25.289Z,73.92
2016-08-19T05:22:25.313Z,74.21
2016-08-19T05:23:26.049Z,73.83
2016-08-19T05:24:26.075Z,74.11
2016-08-19T05:25:26.106Z,73.83
2016-08-19T05:26:26.126Z,73.73
2016-08-19T05:27:26.145Z,74.21
2016-08-19T05:28:26.176Z,75.07
2016-08-19T05:29:26.212Z,74.79
2016-08-19T05:30:26.228Z,75.07
2016-08-19T05:31:26.251Z,75.37
2016-08-19T05:32:26.278Z,74.79
2016-08-19T05:33:25.591Z,74.69
2016-08-19T05:34:25.615Z,74.5
2016-08-19T05:35:25.642Z,74.98
2016-08-19T05:36:26.376Z,74.98
2016-08-19T05:37:26.428Z,75.37
2016-08-19T05:38:26.431Z,74.5
2016-08-19T05:39:26.452Z,74.3
2016-08-19T05:40:25.768Z,74.69
2016-08-19T05:41:26.504Z,74.3
2016-08-19T05:42:26.529Z,74.88
2016-08-19T05:43:25.844Z,75.17
2016-08-19T05:44:25.870Z,75.75
2016-08-19T05:45:26.704Z,75.56
2016-08-19T05:46:26.647Z,75.37
2016-08-19T05:47:25.950Z,75.17
2016-08-19T05:48:26.680Z,75.65
2016-08-19T05:49:25.995Z,75.56
2016-08-19T05:50:26.023Z,75.46
2016-08-19T05:51:26.046Z,75.65
2016-08-19T05:52:26.787Z,75.56
2016-08-19T05:53:26.097Z,75.84
2016-08-19T05:54:26.830Z,75.17
2016-08-19T05:55:26.164Z,75.49
2016-08-19T05:56:26.172Z,74.25
2016-08-19T05:57:26.910Z,74.88
2016-08-19T05:58:26.226Z,74.73
2016-08-19T05:59:26.247Z,77
2016-08-19T06:00:26.279Z,77.23
2016-08-19T06:01:27.008Z,77.67
2016-08-19T06:02:27.034Z,78.09
2016-08-19T06:03:26.352Z,76.84
2016-08-19T06:04:27.084Z,77.23
2016-08-19T06:05:26.400Z,77.42
2016-08-19T06:06:27.133Z,76.94
2016-08-19T06:07:27.159Z,76.26
2016-08-19T06:08:26.475Z,76.23
2016-08-19T06:09:26.501Z,75.88
2016-08-19T06:10:26.524Z,77.04
2016-08-19T06:11:26.552Z,76.26
2016-08-19T06:12:26.576Z,76.94
2016-08-19T06:13:27.311Z,76.46
2016-08-19T06:14:26.627Z,75.94
2016-08-19T06:15:27.364Z,76.46
2016-08-19T06:16:27.390Z,76.26
2016-08-19T06:17:26.713Z,77.04
2016-08-19T06:18:26.750Z,77.51
2016-08-19T06:19:27.485Z,77.86
2016-08-19T06:20:27.486Z,78.25
2016-08-19T06:21:27.515Z,77.13
2016-08-19T06:22:26.829Z,78.38
2016-08-19T06:23:26.854Z,77.81
2016-08-19T06:24:26.881Z,78.28
2016-08-19T06:25:27.639Z,77.04
2016-08-19T06:26:27.640Z,79.53
2016-08-19T06:27:27.675Z,79.73
2016-08-19T06:28:26.981Z,78.28
2016-08-19T06:29:27.005Z,77.23
2016-08-19T06:30:27.029Z,77.71
2016-08-19T06:31:27.056Z,76.94
2016-08-19T06:32:27.083Z,77.09
2016-08-19T06:33:27.107Z,76.71
2016-08-19T06:34:27.154Z,77.33
2016-08-19T06:35:27.882Z,76.52
2016-08-19T06:36:27.182Z,76.71
2016-08-19T06:37:27.918Z,77.04
2016-08-19T06:38:27.234Z,76.81
2016-08-19T06:39:27.259Z,77.09
2016-08-19T06:40:27.287Z,76.56
2016-08-19T06:41:28.026Z,76.32
2016-08-19T06:42:27.336Z,77
2016-08-19T06:43:27.362Z,77.38
2016-08-19T06:44:27.386Z,76.52
2016-08-19T06:45:27.409Z,76.81
2016-08-19T06:46:27.436Z,77.29
2016-08-19T06:47:28.171Z,77.09
2016-08-19T06:48:27.499Z,76.9
2016-08-19T06:49:28.229Z,77.09
2016-08-19T06:50:27.543Z,77.19
2016-08-19T06:51:28.272Z,77.38
2016-08-19T06:52:27.587Z,77.48
2016-08-19T06:53:28.319Z,77.38
2016-08-19T06:54:28.347Z,77.38
2016-08-19T06:55:27.661Z,77.76
2016-08-19T06:56:27.690Z,77.38
2016-08-19T06:57:27.733Z,78.44
2016-08-19T06:58:27.745Z,78.34
2016-08-19T06:59:28.472Z,77.96
2016-08-19T07:00:27.788Z,78.15
2016-08-19T07:01:27.813Z,77.38
2016-08-19T07:02:28.548Z,77.76
2016-08-19T07:03:28.573Z,77.29
2016-08-19T07:04:28.596Z,77.38
2016-08-19T07:05:28.624Z,77.38
2016-08-19T07:06:28.648Z,78.63
2016-08-19T07:07:27.965Z,77.96
2016-08-19T07:08:28.700Z,77.29
2016-08-19T07:09:28.014Z,77.96
2016-08-19T07:10:28.749Z,77.29
2016-08-19T07:11:28.783Z,77.61
2016-08-19T07:12:28.088Z,77.13
2016-08-19T07:13:28.827Z,77.61
2016-08-19T07:14:28.850Z,78
2016-08-19T07:15:28.164Z,77.51
2016-08-19T07:16:28.190Z,77.42
2016-08-19T07:17:28.214Z,77.48
2016-08-19T07:18:28.948Z,77.33
2016-08-19T07:19:28.272Z,77.81
2016-08-19T07:20:28.295Z,78.28
2016-08-19T07:21:29.029Z,77.23
2016-08-19T07:22:28.357Z,77.61
2016-08-19T07:23:29.078Z,77.33
2016-08-19T07:24:28.389Z,77.9
2016-08-19T07:25:28.417Z,77.04
2016-08-19T07:26:29.154Z,76.94
2016-08-19T07:27:29.177Z,76.94
2016-08-19T07:28:29.220Z,77.33
2016-08-19T07:29:29.229Z,77.51
2016-08-19T07:30:29.254Z,77.23
2016-08-19T07:31:29.280Z,77.23
2016-08-19T07:32:29.306Z,77.13
2016-08-19T07:33:29.331Z,77.81
2016-08-19T07:34:28.645Z,77.04
2016-08-19T07:35:29.381Z,77.33
2016-08-19T07:36:29.407Z,77.51
2016-08-19T07:37:29.432Z,77.23
2016-08-19T07:38:29.458Z,77.61
2016-08-19T07:39:28.774Z,77.33
2016-08-19T07:40:29.510Z,77.61
2016-08-19T07:41:28.823Z,76.94
2016-08-19T07:42:29.563Z,77.08
2016-08-19T07:43:29.591Z,77.17
2016-08-19T07:44:29.610Z,76.98
2016-08-19T07:45:28.924Z,77.17
2016-08-19T07:46:28.950Z,76.88
2016-08-19T07:47:29.684Z,76.31
2016-08-19T07:48:29.002Z,76.31
2016-08-19T07:49:29.736Z,76.5
2016-08-19T07:50:29.052Z,76.5
2016-08-19T07:51:29.077Z,77.46
2016-08-19T07:52:29.105Z,77.26
2016-08-19T07:53:29.836Z,77.46
2016-08-19T07:54:29.154Z,76.59
2016-08-19T07:55:29.179Z,77.26
2016-08-19T07:56:29.913Z,76.98
2016-08-19T07:57:29.958Z,76.69
2016-08-19T07:58:29.965Z,76.5
2016-08-19T07:59:29.286Z,76.78
2016-08-19T08:00:29.319Z,77.26
2016-08-19T08:01:30.043Z,77.08
2016-08-19T08:02:29.360Z,77.36
2016-08-19T08:03:30.103Z,77.94
2016-08-19T08:04:30.119Z,78.08
2016-08-19T08:05:29.436Z,79.96
2016-08-19T08:06:29.460Z,80.77
2016-08-19T08:07:29.487Z,79.81
2016-08-19T08:08:30.244Z,79.52
2016-08-19T08:09:29.542Z,79.03
2016-08-19T08:10:29.568Z,77.69
2016-08-19T08:11:29.588Z,76.92
2016-08-19T08:12:29.614Z,77.88
2016-08-19T08:13:29.642Z,77.31
2016-08-19T08:14:29.666Z,77.4
2016-08-19T08:15:30.407Z,77.65
2016-08-19T08:16:29.727Z,78.08
2016-08-19T08:17:30.453Z,77.4
2016-08-19T08:18:30.494Z,77.4
2016-08-19T08:19:29.795Z,77.5
2016-08-19T08:20:30.531Z,77.5
2016-08-19T08:21:29.845Z,77.31
2016-08-19T08:22:30.584Z,77.4
2016-08-19T08:23:30.607Z,77.21
2016-08-19T08:24:29.925Z,77.31
2016-08-19T08:25:30.660Z,77.59
2016-08-19T08:26:30.684Z,77.69
2016-08-19T08:27:30.710Z,77.5
2016-08-19T08:28:30.027Z,77.4
2016-08-19T08:29:30.057Z,77.11
2016-08-19T08:30:30.798Z,76.92
2016-08-19T08:31:30.816Z,76.92
2016-08-19T08:32:30.129Z,76.63
2016-08-19T08:33:30.868Z,76.34
2016-08-19T08:34:30.893Z,76.25
2016-08-19T08:35:30.924Z,76.92
2016-08-19T08:36:30.235Z,76.57
2016-08-19T08:37:30.260Z,76.73
2016-08-19T08:38:31.015Z,76.96
2016-08-19T08:39:30.313Z,77.01
2016-08-19T08:40:30.339Z,76.76
2016-08-19T08:41:31.074Z,76.86
2016-08-19T08:42:31.101Z,76.96
2016-08-19T08:43:30.414Z,77.15
2016-08-19T08:44:30.443Z,76.76
2016-08-19T08:45:31.179Z,76.86
2016-08-19T08:46:31.204Z,77.63
2016-08-19T08:47:31.236Z,77.63
2016-08-19T08:48:30.547Z,77.15
2016-08-19T08:49:30.578Z,77.25
2016-08-19T08:50:30.600Z,77.15
2016-08-19T08:51:31.331Z,76.76
2016-08-19T08:52:31.360Z,76.09
2016-08-19T08:53:31.402Z,75.71
2016-08-19T08:54:30.703Z,75.36
2016-08-19T08:55:31.452Z,75.03
2016-08-19T08:56:30.768Z,75.32
2016-08-19T08:57:30.782Z,75.61
2016-08-19T08:58:31.519Z,75.32
2016-08-19T08:59:30.841Z,75.61
2016-08-19T09:00:30.867Z,75.99
2016-08-19T09:01:30.892Z,76.9
2016-08-19T09:02:30.918Z,76.51
2016-08-19T09:03:30.959Z,75.74
2016-08-19T09:04:31.690Z,76.23
2016-08-19T09:05:30.991Z,77.38
2016-08-19T09:06:31.021Z,77.38
2016-08-19T09:07:31.755Z,77.28
2016-08-19T09:08:31.076Z,76.9
2016-08-19T09:09:31.806Z,76.17
2016-08-19T09:10:31.839Z,75.97
2016-08-19T09:11:31.146Z,76.36
2016-08-19T09:12:31.186Z,76.65
2016-08-19T09:13:31.210Z,76.55
2016-08-19T09:14:31.229Z,75.49
2016-08-19T09:15:31.967Z,71.06
2016-08-19T09:16:31.994Z,73.18
2016-08-19T09:17:31.309Z,73.95
2016-08-19T09:18:31.341Z,74.43
2016-08-19T09:19:31.361Z,74.33
2016-08-19T09:20:32.100Z,74.24
2016-08-19T09:21:32.127Z,73.18
2016-08-19T09:22:31.442Z,73.85
2016-08-19T09:23:31.471Z,74.24
2016-08-19T09:24:32.206Z,73.41
2016-08-19T09:25:32.232Z,73.66
2016-08-19T09:26:32.259Z,74.05
2016-08-19T09:27:31.576Z,74.57
2016-08-19T09:28:32.312Z,73.21
2016-08-19T09:29:31.630Z,71.86
2016-08-19T09:30:31.657Z,71.38
2016-08-19T09:31:32.394Z,73.21
2016-08-19T09:32:31.710Z,71.77
2016-08-19T09:33:31.736Z,71.38
2016-08-19T09:34:32.476Z,71.96
2016-08-19T09:35:32.502Z,72.44
2016-08-19T09:36:32.525Z,70.7
2016-08-19T09:37:32.555Z,70.51
2016-08-19T09:38:32.582Z,72.12
2016-08-19T09:39:31.900Z,71.86
2016-08-19T09:40:31.925Z,71.38
2016-08-19T09:41:31.951Z,70.7
2016-08-19T09:42:31.978Z,70.51
2016-08-19T09:43:32.007Z,70.61
2016-08-19T09:44:32.052Z,71.38
2016-08-19T09:45:32.062Z,71.19
2016-08-19T09:46:32.797Z,70.51
2016-08-19T09:47:32.825Z,70.32
2016-08-19T09:48:32.144Z,69.26
2016-08-19T09:49:32.182Z,69.74
2016-08-19T09:50:32.197Z,69.35
2016-08-19T09:51:32.221Z,69.64
2016-08-19T09:52:32.268Z,69.64
2016-08-19T09:53:32.987Z,69.55
2016-08-19T09:54:33.017Z,70.22
2016-08-19T09:55:33.041Z,70.51
2016-08-19T09:56:33.069Z,69.45
2016-08-19T09:57:32.385Z,71.77
2016-08-19T09:58:33.125Z,72.63
2016-08-19T09:59:32.439Z,71.22
2016-08-19T10:00:32.484Z,70.36
2016-08-19T10:01:33.201Z,69.39
2016-08-19T10:02:33.229Z,69.39
2016-08-19T10:03:32.545Z,68.71
2016-08-19T10:04:33.284Z,68.43
2016-08-19T10:05:32.601Z,69.1
2016-08-19T10:06:33.339Z,68.71
2016-08-19T10:07:33.364Z,67.46
2016-08-19T10:08:32.701Z,68.43
2016-08-19T10:09:32.710Z,67.94
2016-08-19T10:10:33.447Z,68.13
2016-08-19T10:11:32.763Z,68.81
2016-08-19T10:12:33.503Z,68.17
2016-08-19T10:13:33.529Z,68.23
2016-08-19T10:14:33.560Z,67.49
2016-08-19T10:15:32.873Z,67.01
2016-08-19T10:16:33.610Z,64.5
2016-08-19T10:17:33.653Z,65.37
2016-08-19T10:18:32.954Z,65.95
2016-08-19T10:19:32.980Z,66.43
2016-08-19T10:20:33.721Z,67.11
2016-08-19T10:21:33.746Z,67.59
2016-08-19T10:22:33.065Z,65.85
2016-08-19T10:23:33.091Z,65.47
2016-08-19T10:24:33.134Z,66.91
2016-08-19T10:25:33.860Z,66.91
2016-08-19T10:26:33.885Z,65.75
2016-08-19T10:27:33.209Z,66.24
2016-08-19T10:28:33.940Z,65.66
2016-08-19T10:29:33.265Z,66.72
2016-08-19T10:30:33.993Z,66.82
2016-08-19T10:31:33.311Z,66.91
2016-08-19T10:32:34.053Z,65.66
2016-08-19T10:33:34.077Z,66.05
2016-08-19T10:34:33.394Z,66.08
2016-08-19T10:35:34.132Z,65.2
2016-08-19T10:36:33.451Z,65.4
2016-08-19T10:37:34.189Z,66.27
2016-08-19T10:38:33.503Z,65.98
2016-08-19T10:39:34.245Z,63.31
2016-08-19T10:40:34.275Z,63.89
2016-08-19T10:41:34.296Z,65.05
2016-08-19T10:42:34.333Z,65.72
2016-08-19T10:43:33.659Z,66.01
2016-08-19T10:44:34.380Z,65.53
2016-08-19T10:45:33.714Z,65.47
2016-08-19T10:46:33.728Z,66.24
2016-08-19T10:47:33.777Z,66.33
2016-08-19T10:48:33.785Z,65.17
2016-08-19T10:49:34.523Z,63.24
2016-08-19T10:50:34.553Z,63.53
2016-08-19T10:51:33.871Z,64.04
2016-08-19T10:52:34.609Z,63.85
2016-08-19T10:53:34.636Z,62.79
2016-08-19T10:54:33.961Z,63.27
2016-08-19T10:55:34.710Z,63.08
2016-08-19T10:56:34.013Z,61.92
2016-08-19T10:57:34.041Z,61.85
2016-08-19T10:58:34.779Z,59.43
2016-08-19T10:59:34.099Z,57.95
2016-08-19T11:00:34.126Z,59.33
2016-08-19T11:01:34.876Z,59.91
2016-08-19T11:02:34.915Z,59.33
2016-08-19T11:03:34.926Z,59.23
2016-08-19T11:04:34.242Z,59.14
2016-08-19T11:05:34.978Z,60.4
2016-08-19T11:06:34.299Z,59.91
2016-08-19T11:07:35.038Z,55.94
2016-08-19T11:08:35.063Z,56.14
2016-08-19T11:09:34.384Z,56.34
2016-08-19T11:10:35.132Z,57.59
2016-08-19T11:11:34.444Z,58.59
2016-08-19T11:12:34.473Z,58.85
2016-08-19T11:13:34.500Z,59.17
2016-08-19T11:14:34.527Z,59.56
2016-08-19T11:15:35.266Z,59.27
2016-08-19T11:16:34.586Z,59.17
2016-08-19T11:17:34.615Z,59.84
2016-08-19T11:18:35.360Z,59.2
2016-08-19T11:19:35.384Z,58.42
2016-08-19T11:20:35.428Z,57.75
2016-08-19T11:21:34.744Z,57.45
2016-08-19T11:22:34.761Z,56.59
2016-08-19T11:23:34.790Z,56.2
2016-08-19T11:24:34.825Z,54.38
2016-08-19T11:25:34.848Z,54.86
2016-08-19T11:26:34.878Z,54.38
2016-08-19T11:27:34.905Z,54.86
2016-08-19T11:28:34.952Z,54.58
2016-08-19T11:29:34.965Z,54.77
2016-08-19T11:30:34.993Z,55.16
2016-08-19T11:31:35.734Z,55.93
2016-08-19T11:32:35.761Z,55.35
2016-08-19T11:33:35.080Z,53.92
2016-08-19T11:34:35.825Z,53.02
2016-08-19T11:35:35.142Z,53.24
2016-08-19T11:36:35.172Z,51.37
2016-08-19T11:37:35.205Z,52.66
2016-08-19T11:38:35.229Z,52.18
2016-08-19T11:39:35.972Z,51.4
2016-08-19T11:40:35.997Z,51.4
2016-08-19T11:41:35.321Z,51.89
2016-08-19T11:42:35.347Z,51.89
2016-08-19T11:43:35.379Z,52.95
2016-08-19T11:44:35.408Z,51.69
2016-08-19T11:45:35.452Z,52.08
2016-08-19T11:46:35.468Z,52.18
2016-08-19T11:47:35.497Z,49.27
2016-08-19T11:48:35.524Z,49.37
2016-08-19T11:49:35.557Z,49.75
2016-08-19T11:50:35.587Z,50.14
2016-08-19T11:51:36.325Z,51.59
2016-08-19T11:52:35.663Z,50.04
2016-08-19T11:53:36.384Z,49
2016-08-19T11:54:35.706Z,50.26
2016-08-19T11:55:35.735Z,51.81
2016-08-19T11:56:36.477Z,52.56
2016-08-19T11:57:36.507Z,52.08
2016-08-19T11:58:36.534Z,51.23
2016-08-19T11:59:36.584Z,52.11
2016-08-19T12:00:35.884Z,51.62
2016-08-19T12:01:35.915Z,51.43
2016-08-19T12:02:36.653Z,50.46
2016-08-19T12:03:36.685Z,50.36
2016-08-19T12:04:36.005Z,51.75
2016-08-19T12:05:36.034Z,51.55
2016-08-19T12:06:36.775Z,50.09
2016-08-19T12:07:36.805Z,48.83
2016-08-19T12:08:36.122Z,46.69
2016-08-19T12:09:36.156Z,46.98
2016-08-19T12:10:36.896Z,46.79
2016-08-19T12:11:36.928Z,48.35
2016-08-19T12:12:36.958Z,47.38
2016-08-19T12:13:36.994Z,47.47
2016-08-19T12:14:36.309Z,48.15
2016-08-19T12:15:36.340Z,49.22
2016-08-19T12:16:37.077Z,48.83
2016-08-19T12:17:36.409Z,49.99
2016-08-19T12:18:37.136Z,49.54
2016-08-19T12:19:36.457Z,48.83
2016-08-19T12:20:36.487Z,49.05
2016-08-19T12:21:37.228Z,49.71
2016-08-19T12:22:37.257Z,49.63
2016-08-19T12:23:36.579Z,49.44
2016-08-19T12:24:36.609Z,49.05
2016-08-19T12:25:36.703Z,48.85
2016-08-19T12:26:37.380Z,48.15
2016-08-19T12:27:36.698Z,48.25
2016-08-19T12:28:36.729Z,46.5
2016-08-19T12:29:37.473Z,48.05
2016-08-19T12:30:36.791Z,48.15
2016-08-19T12:31:36.819Z,48.25
2016-08-19T12:32:36.850Z,49.12
2016-08-19T12:33:37.618Z,49.32
2016-08-19T12:34:36.910Z,50.21
2016-08-19T12:35:36.941Z,49.63
2016-08-19T12:36:36.978Z,49.63
2016-08-19T12:37:37.715Z,48.75
2016-08-19T12:38:37.031Z,48.85
2016-08-19T12:39:37.773Z,48.66
2016-08-19T12:40:37.092Z,48.37
2016-08-19T12:41:37.128Z,47.88
2016-08-19T12:42:37.867Z,48.27
2016-08-19T12:43:37.218Z,46.04
2016-08-19T12:44:37.230Z,47.4
2016-08-19T12:45:37.965Z,47.81
2016-08-19T12:46:37.275Z,47.91
2016-08-19T12:47:37.311Z,46.25
2016-08-19T12:48:38.051Z,46.45
2016-08-19T12:49:38.080Z,48.2
2016-08-19T12:50:38.115Z,46.94
2016-08-19T12:51:38.151Z,46.15
2016-08-19T12:52:38.171Z,45.87
2016-08-19T12:53:37.492Z,46.64
2016-08-19T12:54:37.522Z,46.94
2016-08-19T12:55:37.552Z,46.37